createdAt,value
2022-09-07T00:04:29.794Z,25.60
2022-09-07T00:09:33.399Z,25.70
2022-09-07T00:14:37.096Z,25.60
2022-09-07T00:19:42.416Z,25.60
2022-09-07T00:24:45.991Z,25.60
2022-09-07T00:29:49.725Z,25.60
2022-09-07T00:34:54.857Z,25.60
2022-09-07T00:39:58.474Z,25.70
2022-09-07T00:45:12.876Z,25.60
2022-09-07T00:50:26.621Z,25.60
2022-09-07T00:55:32.980Z,25.60
2022-09-07T01:00:37.129Z,25.60
2022-09-07T01:05:48.496Z,25.70
2022-09-07T01:10:52.342Z,25.60
2022-09-07T01:16:07.644Z,25.70
2022-09-07T01:21:27.695Z,25.70
2022-09-07T01:27:09.767Z,25.70
2022-09-07T01:32:30.555Z,25.60
2022-09-07T01:37:56.873Z,25.60
2022-09-07T01:43:08.432Z,25.60
2022-09-07T01:48:19.219Z,25.70
2022-09-07T01:53:29.966Z,25.70
2022-09-07T01:58:39.504Z,25.70
2022-09-07T02:03:50.490Z,25.60
2022-09-07T02:09:00.568Z,25.60
2022-09-07T02:14:12.016Z,25.60
2022-09-07T02:19:19.260Z,25.60
2022-09-07T02:24:29.969Z,25.60
2022-09-07T02:29:33.573Z,25.60
2022-09-07T02:34:39.183Z,25.60
2022-09-07T02:39:43.111Z,25.60
2022-09-07T02:44:48.203Z,25.60
2022-09-07T02:50:27.961Z,25.60
2022-09-07T02:55:44.186Z,25.60
2022-09-07T03:00:57.755Z,25.60
2022-09-07T03:06:10.364Z,25.50
2022-09-07T03:11:14.771Z,25.60
2022-09-07T03:16:18.775Z,25.60
2022-09-07T03:21:24.021Z,25.60
2022-09-07T03:26:27.548Z,25.60
2022-09-07T03:31:33.520Z,25.60
2022-09-07T03:36:38.783Z,25.60
2022-09-07T03:41:42.382Z,25.60
2022-09-07T03:46:46.062Z,25.60
2022-09-07T03:51:51.046Z,25.60
2022-09-07T03:56:54.574Z,25.50
2022-09-07T04:01:58.015Z,25.50
2022-09-07T04:07:03.793Z,25.60
2022-09-07T04:12:07.977Z,25.60
2022-09-07T04:17:11.904Z,25.60
2022-09-07T04:22:16.877Z,25.50
2022-09-07T04:27:20.535Z,25.50
2022-09-07T04:32:24.070Z,25.50
2022-09-07T04:37:29.818Z,25.50
2022-09-07T04:42:33.341Z,25.50
2022-09-07T04:47:36.941Z,25.50
2022-09-07T04:52:41.883Z,25.50
2022-09-07T04:57:45.455Z,25.50
2022-09-07T05:02:49.303Z,25.50
2022-09-07T05:07:54.373Z,25.50
2022-09-07T05:12:59.877Z,25.50
2022-09-07T05:18:03.695Z,25.50
2022-09-07T05:23:09.365Z,25.50
2022-09-07T05:28:19.129Z,25.50
2022-09-07T05:33:23.242Z,25.50
2022-09-07T05:38:28.812Z,25.40
2022-09-07T05:43:32.483Z,25.40
2022-09-07T05:48:36.309Z,25.50
2022-09-07T05:53:44.233Z,25.50
2022-09-07T05:58:50.695Z,25.40
2022-09-07T06:03:54.411Z,25.50
2022-09-07T06:09:00.029Z,25.40
2022-09-07T06:14:03.604Z,25.40
2022-09-07T06:19:09.318Z,25.40
2022-09-07T06:24:14.695Z,25.30
2022-09-07T06:29:18.700Z,25.30
2022-09-07T06:34:24.224Z,25.30
2022-09-07T06:39:29.403Z,25.30
2022-09-07T06:44:33.170Z,25.30
2022-09-07T06:49:36.968Z,25.20
2022-09-07T07:00:01.458Z,25.10
2022-09-07T07:05:05.607Z,25.00
2022-09-07T07:10:11.198Z,25.00
2022-09-07T07:15:14.938Z,25.00
2022-09-07T07:20:18.708Z,24.90
2022-09-07T07:25:24.150Z,24.80
2022-09-07T07:30:27.980Z,24.70
2022-09-07T07:35:31.440Z,24.80
2022-09-07T07:40:39.145Z,24.80
2022-09-07T07:46:03.995Z,24.70
2022-09-07T07:51:12.282Z,24.70
2022-09-07T07:56:18.226Z,24.70
2022-09-07T08:01:21.741Z,24.60
2022-09-07T08:06:25.254Z,24.70
2022-09-07T08:11:31.238Z,24.70
2022-09-07T08:16:35.175Z,24.70
2022-09-07T08:21:38.895Z,24.80
2022-09-07T08:26:43.944Z,24.70
2022-09-07T08:31:47.730Z,24.70
2022-09-07T08:36:51.528Z,24.70
2022-09-07T08:42:12.510Z,24.70
2022-09-07T08:47:28.522Z,24.70
2022-09-07T08:52:46.831Z,24.70
2022-09-07T08:58:02.950Z,24.70
2022-09-07T09:08:54.441Z,24.70
2022-09-07T09:14:07.501Z,24.70
2022-09-07T09:19:47.817Z,24.70
2022-09-07T09:24:59.174Z,24.70
2022-09-07T09:30:13.273Z,24.70
2022-09-07T09:35:25.465Z,24.70
2022-09-07T09:40:32.798Z,24.70
2022-09-07T09:56:42.859Z,24.70
2022-09-07T10:07:23.517Z,24.70
2022-09-07T10:12:32.286Z,24.70
2022-09-07T10:17:42.166Z,24.80
2022-09-07T10:22:51.360Z,24.80
2022-09-07T10:28:07.842Z,24.80
2022-09-07T10:33:19.651Z,24.80
2022-09-07T10:38:25.988Z,24.80
2022-09-07T10:43:44.375Z,24.80
2022-09-07T10:49:09.707Z,24.80
2022-09-07T10:54:32.654Z,24.90
2022-09-07T11:00:09.689Z,24.90
2022-09-07T11:05:31.092Z,24.90
2022-09-07T11:10:47.731Z,24.90
2022-09-07T11:15:58.042Z,25.00
2022-09-07T11:21:05.890Z,24.90
2022-09-07T11:26:18.981Z,25.00
2022-09-07T11:31:27.729Z,24.90
2022-09-07T11:36:46.243Z,25.00
2022-09-07T11:42:42.510Z,25.00
2022-09-07T11:47:36.663Z,25.00
2022-09-07T11:52:45.742Z,25.00
2022-09-07T11:58:29.399Z,25.00
2022-09-07T12:04:13.218Z,25.00
2022-09-07T12:09:48.691Z,25.00
2022-09-07T12:15:12.815Z,25.00
2022-09-07T12:20:19.083Z,25.10
2022-09-07T12:25:25.775Z,25.10
2022-09-07T12:30:57.774Z,25.10
2022-09-07T12:36:02.528Z,25.10
2022-09-07T12:41:26.461Z,25.10
2022-09-07T12:46:54.578Z,25.10
2022-09-07T12:52:15.716Z,25.10
2022-09-07T12:57:35.137Z,25.10
2022-09-07T13:09:31.876Z,25.10
2022-09-07T13:14:39.865Z,25.10
2022-09-07T13:20:19.207Z,25.10
2022-09-07T13:26:00.560Z,25.20
2022-09-07T13:31:40.342Z,25.10
2022-09-07T13:36:49.686Z,25.20
2022-09-07T13:41:57.923Z,25.20
2022-09-07T13:47:47.178Z,25.20
2022-09-07T13:53:33.883Z,25.20
2022-09-07T13:58:41.918Z,25.20
2022-09-07T14:03:53.533Z,25.20
2022-09-07T14:09:00.541Z,25.20
2022-09-07T14:14:10.466Z,25.30
2022-09-07T14:19:24.218Z,25.30
2022-09-07T14:24:35.386Z,25.30
2022-09-07T14:29:39.862Z,25.30
2022-09-07T14:34:45.716Z,25.30
2022-09-07T14:39:52.806Z,25.30
2022-09-07T14:45:18.864Z,25.30
2022-09-07T14:50:28.489Z,25.30
2022-09-07T14:55:37.304Z,25.30
2022-09-07T15:00:43.145Z,25.30
2022-09-07T15:05:51.632Z,25.30
2022-09-07T15:16:31.778Z,25.30
2022-09-07T15:21:37.752Z,25.40
2022-09-07T15:32:11.217Z,25.50
2022-09-07T15:48:04.077Z,25.70
2022-09-07T15:54:07.417Z,25.80
2022-09-07T15:58:33.177Z,25.80
2022-09-07T16:03:37.298Z,25.90
2022-09-07T16:08:42.428Z,26.00
2022-09-07T16:13:47.907Z,26.00
2022-09-07T16:18:51.880Z,26.10
2022-09-07T16:23:56.951Z,26.10
2022-09-07T16:29:01.530Z,26.00
2022-09-07T16:34:05.351Z,26.00
2022-09-07T16:39:11.616Z,26.00
2022-09-07T16:44:16.345Z,26.00
2022-09-07T16:49:20.408Z,26.00
2022-09-07T16:54:25.399Z,25.80
2022-09-07T16:59:29.039Z,25.80
2022-09-07T17:04:32.565Z,25.80
2022-09-07T17:09:37.529Z,25.80
2022-09-07T17:14:41.251Z,25.80
2022-09-07T17:19:45.278Z,25.70
2022-09-07T17:24:50.217Z,25.70
2022-09-07T17:29:53.780Z,25.70
2022-09-07T17:34:57.386Z,25.70
2022-09-07T17:40:05.405Z,25.70
2022-09-07T17:45:11.630Z,25.60
2022-09-07T17:50:15.373Z,25.60
2022-09-07T17:55:20.122Z,25.70
2022-09-07T18:00:23.731Z,25.70
2022-09-07T18:05:27.403Z,25.60
2022-09-07T18:15:59.905Z,25.50
2022-09-07T18:21:03.440Z,25.50
2022-09-07T18:26:09.639Z,25.50
2022-09-07T18:31:14.084Z,25.50
2022-09-07T18:36:17.646Z,25.50
2022-09-07T18:41:23.283Z,25.50
2022-09-07T18:46:28.617Z,25.50
2022-09-07T18:52:51.593Z,25.50
2022-09-07T18:56:58.213Z,25.50
2022-09-07T19:02:04.843Z,25.50
2022-09-07T19:07:10.038Z,25.60
2022-09-07T19:12:14.921Z,25.60
2022-09-07T19:17:18.453Z,25.60
2022-09-07T19:22:21.932Z,25.60
2022-09-07T19:27:27.886Z,25.60
2022-09-07T19:32:31.630Z,25.60
2022-09-07T19:37:35.112Z,25.60
2022-09-07T19:42:39.976Z,25.60
2022-09-07T19:47:43.519Z,25.70
2022-09-07T19:52:47.108Z,25.70
2022-09-07T19:57:52.535Z,25.60
2022-09-07T20:02:56.146Z,25.60
2022-09-07T20:07:59.676Z,25.60
2022-09-07T20:13:04.949Z,25.60
2022-09-07T20:18:08.518Z,25.60
2022-09-07T20:23:11.969Z,25.60
2022-09-07T20:28:16.915Z,25.60
2022-09-07T20:33:21.591Z,25.60
2022-09-07T20:38:25.098Z,25.60
2022-09-07T20:43:31.098Z,25.60
2022-09-07T20:48:34.580Z,25.70
2022-09-07T20:53:39.055Z,25.70
2022-09-07T20:58:45.386Z,25.70
2022-09-07T21:03:52.182Z,25.70
2022-09-07T21:08:57.536Z,25.70
2022-09-07T21:14:06.137Z,25.60
2022-09-07T21:19:12.039Z,25.60
2022-09-07T21:24:19.792Z,25.60
2022-09-07T21:29:26.245Z,25.60
2022-09-07T21:34:29.769Z,25.70
2022-09-07T21:39:33.193Z,25.70
2022-09-07T21:44:37.921Z,25.70
2022-09-07T21:49:41.410Z,25.70
2022-09-07T21:54:45.471Z,25.70
2022-09-07T21:59:50.346Z,25.70
2022-09-07T22:04:53.770Z,25.70
2022-09-07T22:09:57.246Z,25.70
2022-09-07T22:15:02.170Z,25.70
2022-09-07T22:20:06.778Z,25.70
2022-09-07T22:25:10.914Z,25.70
2022-09-07T22:30:16.242Z,25.70
2022-09-07T22:35:21.764Z,25.70
2022-09-07T22:40:25.281Z,25.70
2022-09-07T22:45:30.098Z,25.70
2022-09-07T22:50:34.669Z,25.70
2022-09-07T22:55:40.290Z,25.70
2022-09-07T23:00:46.985Z,25.70
2022-09-07T23:05:50.534Z,25.70
2022-09-07T23:10:54.159Z,25.70
2022-09-07T23:16:06.135Z,25.60
2022-09-07T23:21:10.163Z,25.50
2022-09-07T23:26:13.597Z,25.50
2022-09-07T23:31:18.444Z,25.40
2022-09-07T23:36:21.962Z,25.30
2022-09-07T23:41:26.872Z,25.30
2022-09-07T23:46:31.877Z,25.40
2022-09-07T23:51:35.464Z,25.30
2022-09-07T23:56:39.114Z,25.20
